Decatur, TN

1:52 AM EDT on June 03, 2015 (GMT -0400)
Crossville Memorial-Whitson | | Change Station
CLOSE
Current Station
Airport
Location: Crossville,
Elevation: 1880 ft
Nearby Weather Stations

Elev 1880 ft 35.95 °N, 85.08 °W | Updated 59 minutes ago

Partly Cloudy
Partly Cloudy
61 °F
Feels Like 61 °F
N
9
Wind Variable Wind from ENE

Today
High -- | Low -- °F
--% Chance of Precip.
Yesterday
High -- | Low -- °F
Precip. -- in
6:25 AM 8:50 PM
Full, 100% visible
Pressure 30.01 in
Visibility 10.0 miles
Clouds Overcast 500 ft
Dew Point 57 °F
Humidity 87%
Rainfall 0.00 in
Snow Depth Not available.
UV 0 out of 12
Pollen 5.40 out of 12
Air Quality Not available.
Flu Activity Sporadic
METAR KCSV 030453Z AUTO 06008KT 10SM OVC005 16/14 A3006 RMK AO2 SLP163 T01610139

More Conditions Fewer Conditions

Pressure 30.01 in
Visibility 10.0 miles
Clouds Overcast 500 ft
Dew Point 57 °F
Humidity 87%
Rainfall 0.00 in
Snow Depth Not available.
UV 0 out of 12
Pollen 5.40 out of 12
Air Quality Not available.
Flu Activity Sporadic
METAR KCSV 030453Z AUTO 06008KT 10SM OVC005 16/14 A3006 RMK AO2 SLP163 T01610139

More Conditions Fewer Conditions

10-Day Weather Forecast

×

Almanac

Astronomy

Jun. 03, 2015 Rise Set
Actual Time
Civil Twilight
Nautical Twilight
Astronomical Twilight
Moon
Length of Visible Light
Length of Day
Tomorrow will be .
, % of the Moon is Illuminated

Today's Extremes

State Highs State Lows

Community

WunderPhotos

Upload Photos

1,826,177 photos uploaded!

WunderBlogs® & News

Nearby

Air Quality

  Air Quality AQ Index Pollutant
Not available.

Snow Depth

Station Depth Elevation

Earthquake Activity

City Distance Mag. Time & Date
Minimum magnitude displayed is 2.5.

Coastal Water Temperatures

Place Temperature

Stations

Nearby Weather Stations

Station Location Temp. Windchill Dew Point Humidity Wind Precip. Elev Updated Type